FXMM/MSU METAR and TAF weather

Enter ICAO airport designator
Station Type Date Time Source
FXMM METAR 2019/02/20 10:00 UTC NOAA

FXMM 201000Z 29012KT 9999 SCT035 27/14 Q1023 NOSIG


Station Type Date Time Source
FXMM Decoded METAR 2019/02/20 10:00 UTC NOAA

Maseru / Moshoeshoe, Lesotho (FXMM) 29-27S 027-33E
Feb 20, 2019 - 05:00 AM EST / 2019.02.20 1000 UTC
Wind: from the WNW (290 degrees) at 14 MPH (12 KT):0
Visibility: greater than 7 mile(s):0
Sky conditions: partly cloudy
Temperature: 80 F (27 C)
Dew Point: 57 F (14 C)
Relative Humidity: 44%
Pressure (altimeter): 30.21 in. Hg (1023 hPa)
ob: FXMM 201000Z 29012KT 9999 SCT035 27/14 Q1023 NOSIG
cycle: 10

Station Type Date Time Source
FXMM TAF 2019/02/19 12:30 UTC NOAA

TAF TAF FXMM 190900Z 1912/2012 VRB02KT 9999 SCT035
BECMG 1914/1916 06004KT FEW035
FM191700 00000KT CAVOK
BECMG 2004/2006 06005KT
FM200700 30010KT 9999 FEW035


Example: see airport list